KSGR

Sugar Land Regional Airport

Houston, Texas, USA
METAR KSGR 150053Z 16012KT 10SM CLR 32/22 A2993 RMK AO2 SLP134 T03170222
Observed Flight Rules
Aug-15 @ 00:53 UTC (12 minutes ago) Visual Flight Rules
Wind Visibility Clouds
160° at 12 knots 10 miles
  • Clear skies
Temperatures Readings
Current 32°C / 90°F
Dewpoint 22°C / 72°F
Humidity 55%
Altimeter 29.93" Hg
Pressure 1013.4 hPa
Elevation 2
METAR KSGR 150053Z 16012KT 10SM CLR 32/22 A2993 RMK AO2 SLP134 T03170222
Observed Flight Rules
Aug-15 @ 00:53 UTC
(12 minutes ago)
VFR
Wind Visibility
160° at 12 knots 10 miles
Clouds
  • Clear skies
Temperature Dewpoint
32°C / 90°F 22°C / 72°F
Humidity Altimeter Pressure
55% 29.93" Hg 1013.4 hPa